Aérodrome :
LOGIN :

S'inscrire | Disclaimer

   EN    FR    IT 

 










Légende :    VFR   VFR Marginal   IFR   IFR Intensif   IFR Très Intensif
Visi : 
Plafond : 
>= 8 km
>= 3000ft
5 à 8 km
1000 à 3000 ft
1500m à 5 km
500 à 1000 ft
800 à 1500m
200 à 500 ft
< 800m
< 200 ft
Symboles :   Orages  Brouillard  Fortes neiges  Fortes précipitations  Vent > 20 kt
SIGMETs :   Divers  Orages  Givrage  Turbulence  Onde Orograph.  Cendres Volcan.







- Altitude de l'aérodrome : 1302 ft
- Code IATA : GNB
- Voir les cartes d'approche


LFLS - Grenoble / St. Geoirs

DERNIER METAR :
  • 231800Z AUTO 31004KT 280V340 CAVOK 15/02 Q1025 NOSIG

METARs EXPIRÉS :
  • 231730Z AUTO 33005KT 310V020 CAVOK 16/02 Q1024 NOSIG
  • 231700Z AUTO 33009KT CAVOK 17/02 Q1024 NOSIG
  • 231630Z AUTO 33010KT CAVOK 18/02 Q1024 NOSIG
  • 231600Z AUTO 34011KT CAVOK 18/02 Q1024 NOSIG
  • 231530Z AUTO 34011KT CAVOK 19/02 Q1024 NOSIG

TAF TAF LFLS
Valide du 23 à 15h jusqu'au 24 à 15h UTC


231400Z 2315/2415 35006KT CAVOK
BECMG 2318/2320 VRB03KT
PROB30
TEMPO 2403/2407 4000 BR
BECMG 2410/2412 34008KT
ATIS : +33 4 76 65 55 89
Pas de NOTAMs connus pour ce terrain.



MET'MAP, la Météo Aéronautique d'un coup d'oeil ! - Copyright ORBIFLY Décembre 2007 - Disclaimer

ORBIFLY MET'MAP TEAM :

Programmation & Développement : Alexandra Zaïnal
Conception & Développement : Baudouin d'Aumeries
Co-Programmation & Développement : Marc-Olivier Méhu
Soutien technique & logistique : Manuel Goepfert

Contact : metmap@orbifly.com




SOURCES & CREDITS :

   NOAA